Time;durP1;ratioP1;P1;durP2;ratioP2;P2;SDS_P1;SDS_P2;PMS_P1;PMS_P2;Temp;Humidity;BMP_temperature;BMP_pressure;BME280_temperature;BME280_humidity;BME280_pressure;Samples;Min_cycle;Max_cycle;Signal;HPM_P1;HPM_P2
2023/08/23 00:01:46;;;;;;;9.75;7.07;;;;;;;;;;5101515;28;20115;-85
2023/08/23 00:04:12;;;;;;;12.95;7.22;;;;;;;;;;5099508;28;20032;-85
2023/08/23 00:06:38;;;;;;;12.65;7.03;;;;;;;;;;5106067;28;20027;-85
2023/08/23 00:09:06;;;;;;;9.65;6.57;;;;;;;;;;5111162;28;20039;-84
2023/08/23 00:11:32;;;;;;;12.68;7.18;;;;;;;;;;5118583;28;20275;-85
2023/08/23 00:13:57;;;;;;;9.10;6.70;;;;;;;;;;5123440;28;20055;-85
2023/08/23 00:16:23;;;;;;;9.65;6.90;;;;;;;;;;5114972;28;20024;-86
2023/08/23 00:18:51;;;;;;;13.57;7.82;;;;;;;;;;5109328;28;20040;-86
2023/08/23 00:21:17;;;;;;;9.75;7.00;;;;;;;;;;5120728;28;20067;-85
2023/08/23 00:23:42;;;;;;;11.15;7.05;;;;;;;;;;5116762;28;20031;-84
2023/08/23 00:26:09;;;;;;;11.80;7.00;;;;;;;;;;5119305;28;20118;-85
2023/08/23 00:28:34;;;;;;;9.80;6.90;;;;;;;;;;5104130;28;20036;-84
2023/08/23 00:31:00;;;;;;;8.90;7.40;;;;;;;;;;5105982;28;20038;-85
2023/08/23 00:33:25;;;;;;;12.55;7.50;;;;;;;;;;5090952;28;20036;-86
2023/08/23 00:35:51;;;;;;;9.80;7.13;;;;;;;;;;5116457;28;20054;-86
2023/08/23 00:38:16;;;;;;;10.25;7.00;;;;;;;;;;5107216;28;20457;-85
2023/08/23 00:40:41;;;;;;;12.70;7.03;;;;;;;;;;5097928;28;20040;-84
2023/08/23 00:43:07;;;;;;;10.40;7.80;;;;;;;;;;5103386;28;20405;-84
2023/08/23 00:45:38;;;;;;;12.48;7.25;;;;;;;;;;5109125;28;20024;-84
2023/08/23 00:48:04;;;;;;;10.38;6.97;;;;;;;;;;5108249;28;20032;-85
2023/08/23 00:50:34;;;;;;;11.27;7.38;;;;;;;;;;5105952;28;20025;-85
2023/08/23 00:53:01;;;;;;;10.38;6.93;;;;;;;;;;5096657;28;20028;-85
2023/08/23 00:55:27;;;;;;;8.80;7.32;;;;;;;;;;5094335;28;20114;-85
2023/08/23 00:57:53;;;;;;;11.98;7.22;;;;;;;;;;5105936;28;20393;-85
2023/08/23 01:00:19;;;;;;;12.43;7.47;;;;;;;;;;5101116;28;20064;-85
2023/08/23 01:02:45;;;;;;;10.70;7.03;;;;;;;;;;5095188;28;20075;-84
2023/08/23 01:05:11;;;;;;;10.77;7.28;;;;;;;;;;5096200;28;20077;-85
2023/08/23 01:08:14;;;;;;;12.98;7.78;;;;;;;;;;5103024;28;20039;-85
2023/08/23 01:10:45;;;;;;;10.40;7.53;;;;;;;;;;5088350;28;20043;-85
2023/08/23 01:13:27;;;;;;;9.50;7.03;;;;;;;;;;5119506;28;20055;-84
2023/08/23 01:15:54;;;;;;;8.75;6.88;;;;;;;;;;5102165;28;20032;-84
2023/08/23 01:18:23;;;;;;;8.52;7.40;;;;;;;;;;5105377;28;20036;-84
2023/08/23 01:20:49;;;;;;;13.48;6.90;;;;;;;;;;5090781;28;20036;-84
2023/08/23 01:23:16;;;;;;;11.52;7.38;;;;;;;;;;5108876;28;20122;-84
2023/08/23 01:25:52;;;;;;;11.80;7.18;;;;;;;;;;5101582;28;20086;-86
2023/08/23 01:28:19;;;;;;;8.82;6.88;;;;;;;;;;5096707;28;20074;-86
2023/08/23 01:30:47;;;;;;;10.82;6.55;;;;;;;;;;5100668;28;20081;-86
2023/08/23 01:33:35;;;;;;;10.98;7.18;;;;;;;;;;5110667;28;20115;-86
2023/08/23 01:36:10;;;;;;;14.65;7.38;;;;;;;;;;5083954;28;20028;-86
2023/08/23 01:38:39;;;;;;;10.80;7.18;;;;;;;;;;5090667;28;20135;-85
2023/08/23 01:41:05;;;;;;;11.20;7.28;;;;;;;;;;5103250;28;20040;-85
2023/08/23 01:43:30;;;;;;;11.18;6.93;;;;;;;;;;5102978;28;20039;-85
2023/08/23 01:45:56;;;;;;;9.35;7.00;;;;;;;;;;5101622;28;20024;-83
2023/08/23 01:48:21;;;;;;;10.38;7.15;;;;;;;;;;5100996;28;20541;-85
2023/08/23 01:50:48;;;;;;;11.65;7.05;;;;;;;;;;5102979;28;20096;-85
2023/08/23 01:53:14;;;;;;;14.40;7.07;;;;;;;;;;5087182;28;20103;-84
2023/08/23 01:55:39;;;;;;;11.05;7.40;;;;;;;;;;5102278;28;20051;-85
2023/08/23 01:58:06;;;;;;;12.18;7.20;;;;;;;;;;5097594;28;20036;-85
2023/08/23 02:00:32;;;;;;;11.20;7.10;;;;;;;;;;5084507;28;20085;-85
2023/08/23 02:02:57;;;;;;;10.32;7.13;;;;;;;;;;5071875;28;20036;-85
2023/08/23 02:05:23;;;;;;;10.52;7.10;;;;;;;;;;5117544;27;20530;-85
2023/08/23 02:07:49;;;;;;;11.65;7.22;;;;;;;;;;5098095;28;20127;-84
2023/08/23 02:10:14;;;;;;;10.30;6.95;;;;;;;;;;5107667;28;20496;-84
2023/08/23 02:12:40;;;;;;;7.75;6.88;;;;;;;;;;5103075;28;20466;-85
2023/08/23 02:15:06;;;;;;;8.85;6.97;;;;;;;;;;5096826;28;20024;-85
2023/08/23 02:17:32;;;;;;;13.35;7.40;;;;;;;;;;5108372;28;20047;-85
2023/08/23 02:19:57;;;;;;;11.27;7.50;;;;;;;;;;5114837;28;20039;-85
2023/08/23 02:22:23;;;;;;;11.45;7.53;;;;;;;;;;5112411;28;20520;-85
2023/08/23 02:24:48;;;;;;;10.63;7.20;;;;;;;;;;5105741;28;20038;-84
2023/08/23 02:27:14;;;;;;;11.13;7.20;;;;;;;;;;5103240;28;20071;-85
2023/08/23 02:29:39;;;;;;;8.25;7.05;;;;;;;;;;5106356;28;20039;-85
2023/08/23 02:32:06;;;;;;;9.10;7.25;;;;;;;;;;5111712;28;20027;-85
2023/08/23 02:34:33;;;;;;;10.10;7.20;;;;;;;;;;5107118;28;20052;-85
2023/08/23 02:36:58;;;;;;;10.65;7.35;;;;;;;;;;5099446;28;20036;-85
2023/08/23 02:39:24;;;;;;;10.32;7.30;;;;;;;;;;5088964;28;20029;-85
2023/08/23 02:41:49;;;;;;;9.25;6.53;;;;;;;;;;5112128;28;20026;-84
2023/08/23 02:44:15;;;;;;;12.20;7.13;;;;;;;;;;5105695;28;20043;-84
2023/08/23 02:46:40;;;;;;;9.57;7.07;;;;;;;;;;5089837;28;20038;-84
2023/08/23 02:49:06;;;;;;;8.93;6.85;;;;;;;;;;5093815;28;20561;-85
2023/08/23 02:51:31;;;;;;;9.40;6.85;;;;;;;;;;5087724;28;20028;-85
2023/08/23 02:53:57;;;;;;;9.88;7.22;;;;;;;;;;5103672;28;20478;-85
2023/08/23 02:56:23;;;;;;;9.60;6.53;;;;;;;;;;5098958;28;20036;-85
2023/08/23 02:58:48;;;;;;;12.00;7.32;;;;;;;;;;5099813;28;20040;-85
2023/08/23 03:01:16;;;;;;;19.58;7.70;;;;;;;;;;5092603;28;20039;-85
2023/08/23 03:03:41;;;;;;;11.70;7.18;;;;;;;;;;5104321;28;20142;-85
2023/08/23 03:06:07;;;;;;;10.30;7.45;;;;;;;;;;5101794;28;20035;-84
2023/08/23 03:08:32;;;;;;;8.98;6.88;;;;;;;;;;5098414;28;20036;-85
2023/08/23 03:11:03;;;;;;;8.75;7.05;;;;;;;;;;5092885;28;20617;-86
2023/08/23 03:13:29;;;;;;;12.35;7.45;;;;;;;;;;5101135;28;20117;-85
2023/08/23 03:15:54;;;;;;;10.45;7.47;;;;;;;;;;5102416;28;20023;-85
2023/08/23 03:18:20;;;;;;;9.93;7.45;;;;;;;;;;5115781;28;20473;-84
2023/08/23 03:20:47;;;;;;;9.80;7.22;;;;;;;;;;5122597;28;20027;-85
2023/08/23 03:23:13;;;;;;;11.52;7.80;;;;;;;;;;5107345;28;20032;-85
2023/08/23 03:25:39;;;;;;;11.48;7.35;;;;;;;;;;5109827;28;20027;-85
2023/08/23 03:28:05;;;;;;;10.82;7.05;;;;;;;;;;5112574;28;20028;-85
2023/08/23 03:30:31;;;;;;;11.60;7.07;;;;;;;;;;5116847;28;20025;-85
2023/08/23 03:32:56;;;;;;;11.23;7.47;;;;;;;;;;5110906;28;20373;-85
2023/08/23 03:35:23;;;;;;;12.00;7.43;;;;;;;;;;5070637;28;20028;-85
2023/08/23 03:37:48;;;;;;;8.75;7.68;;;;;;;;;;5103133;28;20063;-84
2023/08/23 03:40:14;;;;;;;14.00;7.22;;;;;;;;;;5124706;27;20032;-84
2023/08/23 03:42:39;;;;;;;10.57;7.03;;;;;;;;;;5092093;28;20028;-85
2023/08/23 03:45:05;;;;;;;10.52;7.38;;;;;;;;;;5102764;28;20035;-85
2023/08/23 03:47:31;;;;;;;10.82;7.60;;;;;;;;;;5098340;28;20034;-85
2023/08/23 03:49:56;;;;;;;9.02;6.95;;;;;;;;;;5099102;28;20035;-85
2023/08/23 03:52:22;;;;;;;10.55;7.65;;;;;;;;;;5093394;28;20033;-85
2023/08/23 03:54:47;;;;;;;9.85;7.28;;;;;;;;;;5109836;28;20050;-84
2023/08/23 03:57:13;;;;;;;10.43;7.60;;;;;;;;;;5101364;28;20025;-84
2023/08/23 03:59:38;;;;;;;11.82;7.90;;;;;;;;;;5096682;28;20036;-85
2023/08/23 04:02:03;;;;;;;13.63;8.02;;;;;;;;;;5104589;28;20446;-85
2023/08/23 04:04:29;;;;;;;9.13;6.80;;;;;;;;;;5103756;28;20016;-85
2023/08/23 04:06:55;;;;;;;11.23;7.32;;;;;;;;;;5105628;28;20032;-83
2023/08/23 04:09:20;;;;;;;10.10;7.65;;;;;;;;;;5068493;28;20175;-85
2023/08/23 04:11:46;;;;;;;11.35;7.60;;;;;;;;;;5094250;28;20067;-85
2023/08/23 04:14:11;;;;;;;12.07;7.38;;;;;;;;;;5103764;28;20091;-85
2023/08/23 04:16:37;;;;;;;10.93;7.80;;;;;;;;;;5116003;28;20032;-84
2023/08/23 04:19:02;;;;;;;11.13;7.72;;;;;;;;;;5113690;28;20051;-85
2023/08/23 04:21:28;;;;;;;10.15;7.82;;;;;;;;;;5111236;28;20032;-85
2023/08/23 04:23:54;;;;;;;11.40;7.38;;;;;;;;;;5098873;28;20035;-85
2023/08/23 04:26:19;;;;;;;12.00;7.50;;;;;;;;;;5111236;28;20099;-85
2023/08/23 04:28:46;;;;;;;13.45;7.70;;;;;;;;;;5114736;28;20088;-85
2023/08/23 04:31:12;;;;;;;9.52;7.07;;;;;;;;;;5110892;28;20028;-85
2023/08/23 04:33:45;;;;;;;8.95;7.60;;;;;;;;;;5104984;28;20025;-84
2023/08/23 04:36:11;;;;;;;10.95;8.20;;;;;;;;;;5102290;28;20511;-85
2023/08/23 04:38:36;;;;;;;10.70;8.07;;;;;;;;;;5087806;28;20024;-85
2023/08/23 04:41:03;;;;;;;10.20;7.82;;;;;;;;;;5110908;28;20056;-85
2023/08/23 04:43:31;;;;;;;10.43;7.50;;;;;;;;;;5102603;28;20138;-85
2023/08/23 04:45:59;;;;;;;11.50;8.48;;;;;;;;;;5086717;28;20024;-85
2023/08/23 04:48:26;;;;;;;14.70;8.00;;;;;;;;;;5106276;28;20486;-85
2023/08/23 04:50:56;;;;;;;10.52;7.78;;;;;;;;;;5106087;28;20053;-84
2023/08/23 04:53:25;;;;;;;12.88;7.70;;;;;;;;;;5105196;28;20040;-85
2023/08/23 04:56:00;;;;;;;11.50;7.55;;;;;;;;;;5099171;28;20028;-85
2023/08/23 04:58:32;;;;;;;10.15;7.50;;;;;;;;;;5101486;28;20024;-85
2023/08/23 05:01:03;;;;;;;12.77;7.85;;;;;;;;;;5080654;28;20020;-85
2023/08/23 05:03:30;;;;;;;14.15;7.70;;;;;;;;;;5104743;28;20036;-85
2023/08/23 05:05:57;;;;;;;8.90;7.40;;;;;;;;;;5097315;28;20039;-85
2023/08/23 05:08:23;;;;;;;11.80;7.68;;;;;;;;;;5092016;28;20047;-85
2023/08/23 05:10:52;;;;;;;9.80;8.15;;;;;;;;;;5091037;28;20032;-85
2023/08/23 05:13:19;;;;;;;11.98;7.75;;;;;;;;;;5099677;28;20039;-85
2023/08/23 05:15:50;;;;;;;13.40;7.97;;;;;;;;;;5111363;27;20100;-85
2023/08/23 05:18:15;;;;;;;15.18;8.27;;;;;;;;;;5097515;28;20040;-85
2023/08/23 05:20:41;;;;;;;11.23;8.10;;;;;;;;;;5107607;28;20128;-85
2023/08/23 05:23:06;;;;;;;11.15;8.25;;;;;;;;;;5106549;28;20035;-85
2023/08/23 05:25:31;;;;;;;14.07;8.52;;;;;;;;;;5109735;28;20047;-85
2023/08/23 05:27:57;;;;;;;12.00;8.07;;;;;;;;;;5099863;28;20028;-85
2023/08/23 05:30:23;;;;;;;8.73;7.57;;;;;;;;;;5111207;28;20032;-86
2023/08/23 05:32:48;;;;;;;11.82;8.00;;;;;;;;;;5104797;28;20053;-85
2023/08/23 05:35:14;;;;;;;9.93;7.63;;;;;;;;;;5101659;28;20504;-85
2023/08/23 05:37:40;;;;;;;12.75;8.20;;;;;;;;;;5109207;28;20019;-85
2023/08/23 05:40:07;;;;;;;11.05;7.85;;;;;;;;;;5085463;28;20040;-85
2023/08/23 05:42:33;;;;;;;10.95;7.90;;;;;;;;;;5099125;28;20020;-85
2023/08/23 05:44:59;;;;;;;13.50;7.78;;;;;;;;;;5092000;28;20556;-85
2023/08/23 05:47:25;;;;;;;10.73;7.97;;;;;;;;;;5085819;28;20024;-86
2023/08/23 05:49:50;;;;;;;10.65;8.00;;;;;;;;;;5104075;28;20062;-86
2023/08/23 05:52:16;;;;;;;10.35;8.48;;;;;;;;;;5103160;28;20028;-85
2023/08/23 05:54:42;;;;;;;12.07;7.45;;;;;;;;;;5100343;28;20031;-86
2023/08/23 05:57:07;;;;;;;13.52;7.60;;;;;;;;;;5087991;28;20043;-86
2023/08/23 05:59:33;;;;;;;11.90;7.90;;;;;;;;;;5101664;28;20039;-85
2023/08/23 06:01:59;;;;;;;11.70;8.27;;;;;;;;;;5102874;28;20062;-86
2023/08/23 06:04:24;;;;;;;9.95;7.63;;;;;;;;;;5096906;28;20022;-86
2023/08/23 06:06:49;;;;;;;13.63;8.07;;;;;;;;;;5095436;28;20047;-86
2023/08/23 06:09:17;;;;;;;13.30;7.70;;;;;;;;;;5094173;28;20052;-85
2023/08/23 06:11:43;;;;;;;12.75;8.63;;;;;;;;;;5099152;28;20036;-85
2023/08/23 06:14:19;;;;;;;11.93;7.93;;;;;;;;;;5098278;28;20058;-85
2023/08/23 06:16:45;;;;;;;12.63;7.95;;;;;;;;;;5090249;28;20036;-84
2023/08/23 06:19:11;;;;;;;11.38;7.75;;;;;;;;;;5099636;28;20385;-85
2023/08/23 06:21:37;;;;;;;13.48;7.70;;;;;;;;;;5100015;28;20059;-84
2023/08/23 06:24:03;;;;;;;9.10;7.80;;;;;;;;;;5106982;28;20032;-85
2023/08/23 06:26:29;;;;;;;10.45;7.65;;;;;;;;;;5109490;28;20036;-85
2023/08/23 06:28:55;;;;;;;10.70;7.65;;;;;;;;;;5111636;28;20071;-86
2023/08/23 06:31:21;;;;;;;13.65;8.05;;;;;;;;;;5099573;28;20031;-85
2023/08/23 06:33:47;;;;;;;11.98;7.45;;;;;;;;;;5101733;28;20074;-84
2023/08/23 06:36:12;;;;;;;13.68;8.63;;;;;;;;;;5106946;28;20031;-85
2023/08/23 06:38:37;;;;;;;11.15;7.80;;;;;;;;;;5108496;28;20035;-85
2023/08/23 06:41:03;;;;;;;12.75;7.80;;;;;;;;;;5103347;28;20032;-86
2023/08/23 06:43:28;;;;;;;12.50;7.25;;;;;;;;;;5097236;28;20040;-86
2023/08/23 06:45:54;;;;;;;10.95;7.68;;;;;;;;;;5095525;28;20404;-86
2023/08/23 06:48:19;;;;;;;13.77;8.02;;;;;;;;;;5100268;28;20036;-85
2023/08/23 06:50:45;;;;;;;12.70;7.43;;;;;;;;;;5104658;28;20048;-84
2023/08/23 06:53:10;;;;;;;8.88;7.50;;;;;;;;;;5107365;28;20028;-85
2023/08/23 06:55:40;;;;;;;17.08;7.78;;;;;;;;;;5094561;28;20047;-84
2023/08/23 06:58:07;;;;;;;10.50;7.35;;;;;;;;;;5086213;28;20052;-85
2023/08/23 07:00:34;;;;;;;14.15;7.35;;;;;;;;;;5099654;28;20094;-86
2023/08/23 07:02:59;;;;;;;11.82;7.40;;;;;;;;;;5099511;28;20028;-86
2023/08/23 07:05:25;;;;;;;11.40;7.70;;;;;;;;;;5091868;28;20044;-86
2023/08/23 07:07:50;;;;;;;11.23;7.47;;;;;;;;;;5092679;28;20182;-85
2023/08/23 07:10:16;;;;;;;15.45;7.88;;;;;;;;;;5100462;28;20024;-84
2023/08/23 07:12:41;;;;;;;12.70;7.82;;;;;;;;;;5099164;28;20031;-85
2023/08/23 07:15:07;;;;;;;12.93;7.78;;;;;;;;;;5095308;28;20027;-85
2023/08/23 07:17:34;;;;;;;11.73;7.82;;;;;;;;;;5093489;28;20042;-86
2023/08/23 07:20:00;;;;;;;13.48;8.02;;;;;;;;;;5101532;28;20032;-86
2023/08/23 07:22:25;;;;;;;13.70;7.80;;;;;;;;;;5100562;28;20047;-86
2023/08/23 07:24:51;;;;;;;11.10;7.93;;;;;;;;;;5116782;28;20084;-85
2023/08/23 07:27:16;;;;;;;12.38;8.15;;;;;;;;;;5116961;28;20062;-85
2023/08/23 07:29:41;;;;;;;13.57;7.93;;;;;;;;;;5104767;28;20031;-85
2023/08/23 07:32:07;;;;;;;10.63;8.15;;;;;;;;;;5107064;28;20047;-85
2023/08/23 07:34:33;;;;;;;12.77;7.75;;;;;;;;;;5111443;28;20047;-86
2023/08/23 07:36:58;;;;;;;12.68;7.72;;;;;;;;;;5114920;28;20106;-86
2023/08/23 07:39:25;;;;;;;12.38;7.78;;;;;;;;;;5110971;28;20058;-86
2023/08/23 07:41:50;;;;;;;13.60;7.65;;;;;;;;;;5101921;28;20042;-85
2023/08/23 07:44:16;;;;;;;13.88;7.50;;;;;;;;;;5108309;28;20040;-86
2023/08/23 07:46:41;;;;;;;11.23;7.50;;;;;;;;;;5112533;28;20055;-85
2023/08/23 07:49:07;;;;;;;10.63;7.53;;;;;;;;;;5103280;28;20075;-85
2023/08/23 07:51:32;;;;;;;12.48;7.78;;;;;;;;;;5105217;28;20492;-86
2023/08/23 07:53:58;;;;;;;13.48;7.53;;;;;;;;;;5098888;28;20031;-87
2023/08/23 07:56:23;;;;;;;13.20;7.45;;;;;;;;;;5103197;28;20092;-86
2023/08/23 07:58:49;;;;;;;11.82;7.90;;;;;;;;;;5107511;28;20036;-87
2023/08/23 08:01:14;;;;;;;11.27;7.15;;;;;;;;;;5106075;28;20008;-86
2023/08/23 08:03:40;;;;;;;14.30;7.88;;;;;;;;;;5099377;28;20040;-86
2023/08/23 08:06:06;;;;;;;9.57;7.43;;;;;;;;;;5095551;28;20047;-86
2023/08/23 08:08:32;;;;;;;11.43;7.50;;;;;;;;;;5104753;28;20042;-84
2023/08/23 08:10:58;;;;;;;11.88;7.55;;;;;;;;;;5104886;28;20028;-87
2023/08/23 08:13:24;;;;;;;9.57;7.40;;;;;;;;;;5098570;28;20032;-87
2023/08/23 08:15:49;;;;;;;13.45;8.20;;;;;;;;;;5094821;28;20064;-87
2023/08/23 08:18:15;;;;;;;13.32;8.02;;;;;;;;;;5101005;28;20035;-86
2023/08/23 08:20:40;;;;;;;9.15;7.38;;;;;;;;;;5099830;28;20064;-86
2023/08/23 08:23:06;;;;;;;11.05;8.18;;;;;;;;;;5098762;28;20030;-86
2023/08/23 08:25:31;;;;;;;14.23;7.82;;;;;;;;;;5108918;28;20036;-86
2023/08/23 08:27:57;;;;;;;11.40;7.57;;;;;;;;;;5107751;28;20104;-87
2023/08/23 08:30:22;;;;;;;10.98;8.20;;;;;;;;;;5120861;28;20028;-86
2023/08/23 08:32:48;;;;;;;11.48;7.78;;;;;;;;;;5113776;28;20631;-87
2023/08/23 08:35:13;;;;;;;11.68;8.07;;;;;;;;;;5116291;28;20049;-87
2023/08/23 08:37:39;;;;;;;12.88;8.32;;;;;;;;;;5113662;28;20475;-86
2023/08/23 08:40:05;;;;;;;11.75;7.97;;;;;;;;;;5106428;28;20088;-86
2023/08/23 08:42:31;;;;;;;14.82;7.75;;;;;;;;;;5111960;28;20083;-85
2023/08/23 08:44:57;;;;;;;11.55;7.47;;;;;;;;;;5108907;28;20090;-86
2023/08/23 08:47:26;;;;;;;12.63;7.88;;;;;;;;;;5102985;28;20015;-86
2023/08/23 08:49:51;;;;;;;9.43;7.93;;;;;;;;;;5102348;28;20028;-87
2023/08/23 08:52:19;;;;;;;9.35;7.78;;;;;;;;;;5094040;28;20154;-84
2023/08/23 08:54:47;;;;;;;11.43;8.07;;;;;;;;;;5098068;28;20028;-86
2023/08/23 08:57:14;;;;;;;11.00;7.47;;;;;;;;;;5102387;28;20032;-86
2023/08/23 08:59:41;;;;;;;11.80;8.02;;;;;;;;;;5104374;28;20039;-86
2023/08/23 09:02:10;;;;;;;10.13;7.68;;;;;;;;;;5094666;28;20035;-86
2023/08/23 09:04:38;;;;;;;10.98;7.28;;;;;;;;;;5089857;28;20361;-86
2023/08/23 09:07:03;;;;;;;12.90;7.53;;;;;;;;;;5100916;28;20103;-85
2023/08/23 09:09:30;;;;;;;11.48;7.80;;;;;;;;;;5099195;28;20044;-87
2023/08/23 09:11:55;;;;;;;13.73;7.85;;;;;;;;;;5085237;28;20070;-87
2023/08/23 09:14:21;;;;;;;9.52;7.45;;;;;;;;;;5093170;28;20064;-87
2023/08/23 09:16:47;;;;;;;11.88;7.25;;;;;;;;;;5093745;28;20032;-86
2023/08/23 09:19:14;;;;;;;16.77;7.57;;;;;;;;;;5097865;28;20032;-86
2023/08/23 09:21:49;;;;;;;8.15;7.00;;;;;;;;;;5095603;28;20043;-85
2023/08/23 09:24:16;;;;;;;12.75;7.25;;;;;;;;;;5091244;28;20035;-86
2023/08/23 09:26:43;;;;;;;11.65;7.30;;;;;;;;;;5098828;28;20054;-86
2023/08/23 09:29:08;;;;;;;13.20;7.32;;;;;;;;;;5103103;28;20039;-87
2023/08/23 09:31:34;;;;;;;10.25;7.50;;;;;;;;;;5107086;28;20169;-87
2023/08/23 09:34:00;;;;;;;12.50;7.60;;;;;;;;;;5111029;28;20058;-86
2023/08/23 09:36:31;;;;;;;9.10;6.97;;;;;;;;;;5108448;28;20122;-86
2023/08/23 09:39:00;;;;;;;11.13;7.10;;;;;;;;;;5097470;28;20055;-86
2023/08/23 09:41:26;;;;;;;14.82;7.10;;;;;;;;;;5115790;27;20023;-86
2023/08/23 09:43:54;;;;;;;12.13;7.10;;;;;;;;;;5102532;28;20095;-86
2023/08/23 09:46:25;;;;;;;9.23;6.80;;;;;;;;;;5104998;28;20028;-86
2023/08/23 09:48:54;;;;;;;12.73;7.50;;;;;;;;;;5097822;28;20087;-87
2023/08/23 09:51:24;;;;;;;11.20;7.45;;;;;;;;;;5095321;28;20381;-87
2023/08/23 09:53:56;;;;;;;15.32;7.75;;;;;;;;;;5098185;28;20115;-86
2023/08/23 09:56:22;;;;;;;10.65;7.43;;;;;;;;;;5102625;28;20027;-87
2023/08/23 09:58:48;;;;;;;11.32;7.72;;;;;;;;;;5099613;28;20389;-86
2023/08/23 10:01:17;;;;;;;12.07;7.55;;;;;;;;;;5095169;28;20029;-86
2023/08/23 10:03:42;;;;;;;10.68;7.18;;;;;;;;;;5091777;28;20360;-85
2023/08/23 10:06:08;;;;;;;13.65;7.22;;;;;;;;;;5099840;28;20087;-86
2023/08/23 10:08:36;;;;;;;14.05;7.22;;;;;;;;;;5097269;28;20028;-86
2023/08/23 10:11:01;;;;;;;13.77;6.95;;;;;;;;;;5093279;28;20037;-86
2023/08/23 10:13:29;;;;;;;12.35;7.05;;;;;;;;;;5088701;28;20056;-87
2023/08/23 10:15:57;;;;;;;9.38;7.00;;;;;;;;;;5096299;28;20031;-87
2023/08/23 10:18:24;;;;;;;11.68;7.07;;;;;;;;;;5094740;28;20108;-86
2023/08/23 10:20:51;;;;;;;9.10;7.10;;;;;;;;;;5095592;28;20037;-86
2023/08/23 10:23:18;;;;;;;8.07;6.63;;;;;;;;;;5089819;28;20058;-86
2023/08/23 10:25:46;;;;;;;9.57;6.38;;;;;;;;;;5092710;28;20081;-86
2023/08/23 10:28:18;;;;;;;11.73;6.97;;;;;;;;;;5099616;28;20437;-86
2023/08/23 10:30:46;;;;;;;11.48;7.00;;;;;;;;;;5108077;28;20101;-86
2023/08/23 10:33:14;;;;;;;10.63;6.22;;;;;;;;;;5110516;28;20027;-87
2023/08/23 10:35:42;;;;;;;8.80;6.75;;;;;;;;;;5107536;28;20039;-86
2023/08/23 10:38:09;;;;;;;8.57;6.30;;;;;;;;;;5098440;28;20044;-86
2023/08/23 10:40:37;;;;;;;11.38;6.63;;;;;;;;;;5103720;28;20027;-85
2023/08/23 10:43:09;;;;;;;9.48;5.90;;;;;;;;;;5106765;28;20043;-85
2023/08/23 10:46:06;;;;;;;8.32;5.40;;;;;;;;;;5105693;28;20103;-86
2023/08/23 10:48:32;;;;;;;11.48;6.00;;;;;;;;;;5091084;28;20040;-86
2023/08/23 10:50:57;;;;;;;7.20;5.53;;;;;;;;;;5097210;28;20486;-86
2023/08/23 10:53:24;;;;;;;9.40;5.65;;;;;;;;;;5100661;28;20074;-86
2023/08/23 10:55:50;;;;;;;10.63;5.68;;;;;;;;;;5100926;28;20036;-86
2023/08/23 10:58:16;;;;;;;8.57;5.18;;;;;;;;;;5100815;28;20046;-86
2023/08/23 11:00:42;;;;;;;8.15;4.97;;;;;;;;;;5089771;28;20501;-87
2023/08/23 11:03:10;;;;;;;10.73;5.15;;;;;;;;;;5091161;28;20130;-86
2023/08/23 11:05:36;;;;;;;8.38;4.80;;;;;;;;;;5098831;28;20035;-86
2023/08/23 11:08:02;;;;;;;8.65;4.95;;;;;;;;;;5094632;28;20440;-85
2023/08/23 11:10:28;;;;;;;9.98;4.70;;;;;;;;;;5092643;28;20496;-85
2023/08/23 11:12:54;;;;;;;6.13;4.13;;;;;;;;;;5085937;28;20027;-86
2023/08/23 11:15:20;;;;;;;6.82;4.00;;;;;;;;;;5099440;28;20039;-85
2023/08/23 11:17:46;;;;;;;8.13;4.15;;;;;;;;;;5095409;28;20043;-85
2023/08/23 11:20:13;;;;;;;7.32;3.92;;;;;;;;;;5091146;28;20668;-87
2023/08/23 11:22:39;;;;;;;8.30;4.20;;;;;;;;;;5086603;28;20462;-86
2023/08/23 11:25:05;;;;;;;9.20;4.10;;;;;;;;;;5087624;28;20089;-86
2023/08/23 11:27:30;;;;;;;5.53;3.83;;;;;;;;;;5090659;28;20038;-85
2023/08/23 11:29:58;;;;;;;7.70;3.72;;;;;;;;;;5094278;28;20032;-86
2023/08/23 11:32:23;;;;;;;6.22;3.78;;;;;;;;;;5111113;28;20096;-85
2023/08/23 11:34:49;;;;;;;9.65;4.65;;;;;;;;;;5099805;28;20544;-85
2023/08/23 11:37:15;;;;;;;7.03;4.10;;;;;;;;;;5097239;28;20043;-86
2023/08/23 11:39:40;;;;;;;4.45;3.65;;;;;;;;;;5102646;28;20035;-86
2023/08/23 11:42:06;;;;;;;6.60;4.50;;;;;;;;;;5106833;28;20106;-86
2023/08/23 11:44:31;;;;;;;7.32;4.15;;;;;;;;;;5107592;28;20469;-84
2023/08/23 11:46:58;;;;;;;6.57;4.00;;;;;;;;;;5099680;28;20748;-86
2023/08/23 11:49:24;;;;;;;6.65;4.05;;;;;;;;;;5102141;28;20015;-86
2023/08/23 11:51:50;;;;;;;10.75;4.40;;;;;;;;;;5083862;28;20029;-86
2023/08/23 11:54:17;;;;;;;8.50;3.97;;;;;;;;;;5105318;28;20036;-85
2023/08/23 11:56:44;;;;;;;9.43;4.10;;;;;;;;;;5101093;28;20031;-87
2023/08/23 11:59:11;;;;;;;5.38;4.35;;;;;;;;;;5087851;28;20035;-86
2023/08/23 12:01:38;;;;;;;6.72;4.38;;;;;;;;;;5101148;28;20488;-86
2023/08/23 12:04:04;;;;;;;7.90;4.25;;;;;;;;;;5099788;28;20111;-86
2023/08/23 12:06:30;;;;;;;11.48;4.10;;;;;;;;;;5096667;28;20541;-86
2023/08/23 12:08:56;;;;;;;8.88;4.32;;;;;;;;;;5095503;28;20534;-85
2023/08/23 12:11:21;;;;;;;10.55;4.15;;;;;;;;;;5088414;28;20028;-86
2023/08/23 12:13:47;;;;;;;8.88;4.45;;;;;;;;;;5096560;28;20040;-85
2023/08/23 12:16:13;;;;;;;8.02;4.50;;;;;;;;;;5100134;28;20040;-87
2023/08/23 12:18:38;;;;;;;8.13;4.32;;;;;;;;;;5094636;28;20032;-87
2023/08/23 12:21:04;;;;;;;7.65;3.97;;;;;;;;;;5091971;28;20031;-86
2023/08/23 12:23:30;;;;;;;6.45;4.35;;;;;;;;;;5093476;28;20032;-85
2023/08/23 12:25:56;;;;;;;7.32;3.97;;;;;;;;;;5113380;27;20470;-84
2023/08/23 12:28:22;;;;;;;9.35;4.18;;;;;;;;;;5092536;28;20021;-87
2023/08/23 12:30:47;;;;;;;9.38;3.85;;;;;;;;;;5093328;28;20032;-86
2023/08/23 12:33:13;;;;;;;6.18;3.58;;;;;;;;;;5121882;27;20053;-86
2023/08/23 12:35:38;;;;;;;7.78;3.80;;;;;;;;;;5101484;28;20386;-86
2023/08/23 12:38:04;;;;;;;7.07;3.97;;;;;;;;;;5106834;28;20035;-87
2023/08/23 12:40:29;;;;;;;9.48;4.18;;;;;;;;;;5110640;28;20040;-86
2023/08/23 12:42:54;;;;;;;9.00;4.40;;;;;;;;;;5109214;28;20028;-86
2023/08/23 12:45:20;;;;;;;8.30;4.07;;;;;;;;;;5100541;28;20381;-86
2023/08/23 12:47:46;;;;;;;13.25;4.57;;;;;;;;;;5101367;28;20023;-86
2023/08/23 12:50:11;;;;;;;8.18;4.00;;;;;;;;;;5106286;28;20024;-86
2023/08/23 12:52:38;;;;;;;6.85;4.03;;;;;;;;;;5102879;28;20172;-86
2023/08/23 12:55:04;;;;;;;6.45;4.18;;;;;;;;;;5100529;28;20024;-87
2023/08/23 12:57:31;;;;;;;6.60;3.90;;;;;;;;;;5099092;28;20033;-86
2023/08/23 12:59:56;;;;;;;8.10;4.20;;;;;;;;;;5096011;28;20020;-85
2023/08/23 13:02:22;;;;;;;5.50;3.78;;;;;;;;;;5100808;28;20045;-85
2023/08/23 13:04:47;;;;;;;6.78;4.07;;;;;;;;;;5099680;28;20031;-86
2023/08/23 13:07:13;;;;;;;6.30;4.07;;;;;;;;;;5097333;28;20048;-86
2023/08/23 13:09:38;;;;;;;6.03;3.92;;;;;;;;;;5087998;28;20054;-86
2023/08/23 13:12:04;;;;;;;7.75;4.10;;;;;;;;;;5093583;28;20045;-87
2023/08/23 13:14:30;;;;;;;4.78;3.92;;;;;;;;;;5099504;28;20469;-86
2023/08/23 13:16:55;;;;;;;6.18;3.83;;;;;;;;;;5099213;28;20036;-84
2023/08/23 13:19:21;;;;;;;7.03;3.80;;;;;;;;;;5090719;28;20059;-86
2023/08/23 13:21:46;;;;;;;6.90;3.90;;;;;;;;;;5096423;28;20076;-86
2023/08/23 13:24:19;;;;;;;7.22;3.83;;;;;;;;;;5098865;28;20087;-86
2023/08/23 13:26:45;;;;;;;7.78;3.80;;;;;;;;;;5094724;28;20105;-86
2023/08/23 13:29:11;;;;;;;6.43;4.15;;;;;;;;;;5088943;28;20017;-86
2023/08/23 13:31:36;;;;;;;6.28;3.90;;;;;;;;;;5092903;28;20032;-86
2023/08/23 13:34:02;;;;;;;5.80;3.70;;;;;;;;;;5099732;28;20023;-86
2023/08/23 13:36:28;;;;;;;9.65;4.20;;;;;;;;;;5103150;28;20511;-86
2023/08/23 13:38:53;;;;;;;6.07;3.90;;;;;;;;;;5108583;28;20488;-86
2023/08/23 13:41:18;;;;;;;7.72;4.10;;;;;;;;;;5110000;28;20106;-85
2023/08/23 13:43:44;;;;;;;6.45;4.20;;;;;;;;;;5104365;28;20087;-86
2023/08/23 13:46:10;;;;;;;5.95;4.22;;;;;;;;;;5099901;28;20037;-87
2023/08/23 13:48:35;;;;;;;8.27;4.28;;;;;;;;;;5101070;28;20027;-86
2023/08/23 13:51:01;;;;;;;5.18;3.85;;;;;;;;;;5102017;28;20028;-87
2023/08/23 13:53:26;;;;;;;7.35;4.10;;;;;;;;;;5104360;28;20153;-86
2023/08/23 13:55:52;;;;;;;6.40;3.85;;;;;;;;;;5094229;28;20035;-86
2023/08/23 13:58:17;;;;;;;5.43;3.88;;;;;;;;;;5095951;28;20027;-86
2023/08/23 14:00:44;;;;;;;6.60;3.90;;;;;;;;;;5100579;28;20038;-86
2023/08/23 14:03:09;;;;;;;8.70;3.65;;;;;;;;;;5101511;28;20035;-86
2023/08/23 14:05:36;;;;;;;5.28;3.80;;;;;;;;;;5097329;28;20028;-87
2023/08/23 14:08:02;;;;;;;6.53;3.58;;;;;;;;;;5088182;28;20380;-86
2023/08/23 14:10:31;;;;;;;14.90;4.30;;;;;;;;;;5093752;28;20052;-85
2023/08/23 14:12:57;;;;;;;5.72;3.78;;;;;;;;;;5098263;28;20479;-85
2023/08/23 14:15:22;;;;;;;5.95;3.80;;;;;;;;;;5095214;28;20512;-86
2023/08/23 14:17:48;;;;;;;6.18;4.10;;;;;;;;;;5092766;28;20044;-85
2023/08/23 14:20:13;;;;;;;6.82;3.95;;;;;;;;;;5089168;28;20031;-86
2023/08/23 14:22:41;;;;;;;9.68;4.05;;;;;;;;;;5098000;28;20600;-86
2023/08/23 14:25:06;;;;;;;8.75;3.90;;;;;;;;;;5093458;28;20475;-86
2023/08/23 14:27:32;;;;;;;10.48;4.00;;;;;;;;;;5096970;28;20036;-86
2023/08/23 14:29:58;;;;;;;6.88;3.75;;;;;;;;;;5109861;28;20021;-85
2023/08/23 14:32:23;;;;;;;7.55;3.88;;;;;;;;;;5101390;28;20032;-87